Time;durP1;ratioP1;P1;durP2;ratioP2;P2;SDS_P1;SDS_P2;PMS_P1;PMS_P2;Temp;Humidity;BMP_temperature;BMP_pressure;BME280_temperature;BME280_humidity;BME280_pressure;Samples;Min_cycle;Max_cycle;Signal;HPM_P1;HPM_P2
2022/02/15 00:01:19;;;;;;;25.48;17.17;;;;;;;3.80;57.51;100031.66;4943451;29;20038;-93
2022/02/15 00:03:45;;;;;;;20.50;14.87;;;;;;;5.40;57.52;100312.38;4959423;29;20027;-93
2022/02/15 00:06:13;;;;;;;23.20;18.10;;;;;;;2.95;56.98;99902.72;4962700;29;20037;-93
2022/02/15 00:08:39;;;;;;;23.00;15.77;;;;;;;3.87;57.59;100111.19;4951096;29;20031;-93
2022/02/15 00:11:04;;;;;;;25.60;18.00;;;;;;;3.72;57.40;100016.59;4952508;29;20047;-94
2022/02/15 00:13:32;;;;;;;27.07;18.63;;;;;;;5.18;57.54;100282.81;4961072;28;20058;-94
2022/02/15 00:18:39;;;;;;;30.85;21.10;;;;;;;5.13;57.55;100291.06;5473782;23;20038;-90
2022/02/15 00:26:24;;;;;;;29.00;20.80;;;;;;;2.23;57.38;99811.88;5188495;23;20058;-92
2022/02/15 00:34:26;;;;;;;25.50;16.17;;;;;;;3.26;57.62;99979.41;5998514;23;20059;-93
2022/02/15 00:39:34;;;;;;;21.57;15.47;;;;;;;2.13;57.24;99798.72;5209592;23;20062;-93
2022/02/15 00:44:35;;;;;;;22.40;15.23;;;;;;;3.40;57.47;100091.38;5919515;23;20029;-91
2022/02/15 07:56:05;;;;;;;56.07;36.20;;;;;;;4.15;58.38;100214.34;5998939;23;20002;-96
2022/02/15 07:58:34;;;;;;;55.90;41.23;;;;;;;5.33;58.26;100326.94;5019637;28;20030;-93
2022/02/15 08:03:35;;;;;;;61.77;43.07;;;;;;;3.69;58.18;100112.63;5092635;23;20072;-93
2022/02/15 08:06:01;;;;;;;62.90;43.37;;;;;;;4.83;58.36;100236.81;4978644;28;20034;-95
2022/02/15 08:08:26;;;;;;;136.23;49.80;;;;;;;4.57;58.27;100157.00;4984101;28;20033;-96
2022/02/15 08:10:56;;;;;;;96.77;49.10;;;;;;;3.42;58.04;100006.78;5011912;28;20061;-96
2022/02/15 08:16:21;;;;;;;59.00;43.33;;;;;;;5.02;58.04;100223.88;5125151;23;20113;-95
2022/02/15 08:18:47;;;;;;;53.40;40.30;;;;;;;4.43;58.19;100134.56;4979130;28;20054;-94
2022/02/15 08:21:12;;;;;;;56.40;39.50;;;;;;;5.10;57.92;100221.47;4985127;28;20033;-94
2022/02/15 08:23:38;;;;;;;60.10;41.97;;;;;;;2.97;58.05;99862.50;4987601;28;20034;-95
2022/02/15 08:26:04;;;;;;;56.43;40.10;;;;;;;4.70;58.04;100184.66;4985624;28;20189;-96
2022/02/15 08:28:31;;;;;;;60.27;44.03;;;;;;;4.13;58.19;100043.78;4984197;28;20042;-95
2022/02/15 08:31:08;;;;;;;58.37;44.37;;;;;;;3.31;58.27;99962.44;4983842;28;20441;-96
2022/02/15 08:33:37;;;;;;;99.27;46.97;;;;;;;2.77;57.74;99826.75;5008264;28;20174;-96
2022/02/15 08:36:04;;;;;;;71.37;43.80;;;;;;;3.26;57.65;99899.34;5013163;28;20013;-96
2022/02/15 08:41:23;;;;;;;53.93;39.60;;;;;;;5.89;57.86;100255.06;5041875;23;20043;-96
2022/02/15 08:43:54;;;;;;;61.20;41.30;;;;;;;4.54;57.66;100082.25;4998193;28;20014;-96
2022/02/15 08:46:42;;;;;;;59.65;43.60;;;;;;;5.68;57.44;100181.72;4998325;28;20395;-96
2022/02/15 08:49:26;;;;;;;;;;;;;;;;;;;;;
2022/02/15 08:51:59;;;;;;;51.42;38.30;;;;;;;6.85;57.48;100342.03;5006256;28;20037;-96
2022/02/15 08:54:33;;;;;;;50.72;40.22;;;;;;;4.66;57.60;100020.25;4981941;28;20018;-96
2022/02/15 08:56:59;;;;;;;47.97;39.65;;;;;;;5.37;57.60;100089.25;4981615;28;20022;-96
2022/02/15 08:59:25;;;;;;;52.95;40.17;;;;;;;6.62;57.09;100301.22;4967997;28;20030;-96
2022/02/15 09:01:50;;;;;;;50.28;37.08;;;;;;;4.44;56.78;99867.75;4980070;28;20503;-96
2022/02/15 09:04:18;;;;;;;54.60;38.13;;;;;;;4.29;56.42;99882.13;4974847;28;20019;-96
2022/02/15 09:06:58;;;;;;;;;;;;;;;;;;;;;
2022/02/15 09:09:31;;;;;;;41.70;29.33;;;;;;;7.16;57.02;100278.94;4996170;28;20035;-96
2022/02/15 09:12:01;;;;;;;40.70;31.77;;;;;;;4.72;56.80;99847.09;4993055;28;20047;-96
2022/02/15 09:14:29;;;;;;;33.83;26.48;;;;;;;5.95;56.71;100081.63;4973092;28;20049;-96
2022/02/15 09:16:56;;;;;;;33.78;26.85;;;;;;;6.46;56.68;100138.25;4974954;28;20038;-96
2022/02/15 09:19:22;;;;;;;33.47;26.50;;;;;;;5.20;56.07;99888.25;4983263;28;20042;-96
2022/02/15 09:21:50;;;;;;;35.83;26.70;;;;;;;7.44;56.23;100214.22;4980484;28;20026;-94
2022/02/15 09:24:15;;;;;;;32.10;25.05;;;;;;;6.48;56.08;100068.94;4980860;28;20069;-96
2022/02/15 09:26:41;;;;;;;30.40;24.55;;;;;;;7.98;56.43;100301.09;4973864;28;20038;-96
2022/02/15 09:29:07;;;;;;;28.95;23.52;;;;;;;7.94;55.54;100275.25;4964084;28;20053;-96
2022/02/15 09:31:33;;;;;;;30.05;23.17;;;;;;;7.96;55.69;100278.56;4954705;28;20031;-95
2022/02/15 09:33:58;;;;;;;30.90;23.48;;;;;;;7.88;55.09;100255.59;4979137;28;20026;-96
2022/02/15 09:36:26;;;;;;;34.72;25.92;;;;;;;6.95;54.80;100090.88;4960871;28;20027;-96
2022/02/15 09:38:51;;;;;;;32.17;22.30;;;;;;;6.56;55.02;100027.09;4964571;28;20483;-96
2022/02/15 09:41:18;;;;;;;31.17;22.77;;;;;;;8.46;54.55;100296.69;4965839;28;20026;-96
2022/02/15 09:43:44;;;;;;;33.33;22.33;;;;;;;8.42;54.64;100284.81;4969352;28;20034;-96
2022/02/15 09:46:13;;;;;;;31.30;23.27;;;;;;;8.52;54.35;100289.03;4971178;28;20503;-96
2022/02/15 09:48:40;;;;;;;36.45;25.27;;;;;;;8.55;54.54;100277.38;4976447;28;20034;-96
2022/02/15 09:51:10;;;;;;;50.33;26.88;;;;;;;8.66;54.21;100279.00;4975259;28;20040;-94
2022/02/15 09:53:37;;;;;;;28.08;22.02;;;;;;;8.70;53.67;100285.63;4973100;28;20081;-94
2022/02/15 09:56:04;;;;;;;31.35;24.23;;;;;;;8.42;53.82;100238.25;4954665;29;20038;-95
2022/02/15 09:58:29;;;;;;;77.18;28.30;;;;;;;8.38;53.41;100221.13;4965876;28;20029;-94
2022/02/15 10:00:55;;;;;;;30.55;21.52;;;;;;;8.00;53.30;100130.03;4963681;28;20089;-92
2022/02/15 10:03:21;;;;;;;29.48;21.85;;;;;;;8.81;53.34;100251.19;4976304;28;20090;-94
2022/02/15 10:05:51;;;;;;;26.42;20.80;;;;;;;8.66;52.91;100206.13;4960953;28;21664;-93
2022/02/15 10:08:26;;;;;;;26.23;20.52;;;;;;;8.80;52.68;100189.78;4976628;28;20027;-93
2022/02/15 10:10:52;;;;;;;27.08;21.58;;;;;;;9.27;52.44;100260.69;4989653;28;20125;-94
2022/02/15 10:13:17;;;;;;;25.70;19.80;;;;;;;9.04;52.39;100212.91;4962960;28;20507;-94
2022/02/15 10:15:46;;;;;;;27.52;20.88;;;;;;;8.92;52.41;100171.97;4967615;28;20116;-92
2022/02/15 10:18:17;;;;;;;27.63;20.60;;;;;;;9.51;52.36;100234.50;5006774;28;20030;-94
2022/02/15 10:20:44;;;;;;;30.95;23.45;;;;;;;8.67;51.97;100088.47;4989467;28;20033;-94
2022/02/15 10:23:30;;;;;;;25.95;19.42;;;;;;;9.34;51.70;100182.66;4982162;28;20077;-95
2022/02/15 10:25:57;;;;;;;26.08;20.92;;;;;;;9.17;51.76;100131.69;4975213;28;20482;-93
2022/02/15 10:28:25;;;;;;;28.17;24.02;;;;;;;9.26;51.73;100158.06;4967136;28;20033;-94
2022/02/15 10:30:53;;;;;;;29.98;22.83;;;;;;;9.09;50.90;100112.34;4969919;28;20038;-93
2022/02/15 10:33:21;;;;;;;27.92;23.60;;;;;;;10.02;51.46;100232.88;4977304;28;20040;-93
2022/02/15 10:35:58;;;;;;;29.45;21.38;;;;;;;9.48;51.25;100107.47;4961883;28;20090;-94
2022/02/15 10:38:26;;;;;;;27.13;21.40;;;;;;;9.96;50.90;100166.72;4970486;28;20054;-93
2022/02/15 10:40:59;;;;;;;27.10;21.80;;;;;;;10.06;50.73;100170.88;4969058;28;20054;-92
2022/02/15 10:43:26;;;;;;;32.38;23.98;;;;;;;10.39;50.45;100194.78;4974067;28;20045;-94
2022/02/15 10:45:52;;;;;;;27.85;21.13;;;;;;;10.43;50.26;100185.56;4970660;28;20096;-93
2022/02/15 10:48:28;;;;;;;32.67;24.77;;;;;;;9.79;49.94;100077.00;4968162;28;20050;-93
2022/02/15 10:50:55;;;;;;;31.48;25.15;;;;;;;10.58;50.21;100177.84;4956086;28;20034;-92
2022/02/15 10:53:22;;;;;;;29.60;23.38;;;;;;;10.17;49.75;100109.06;4989614;28;20097;-93
2022/02/15 10:55:48;;;;;;;34.25;24.67;;;;;;;10.31;49.60;100118.19;4994995;28;20019;-93
2022/02/15 10:58:14;;;;;;;38.60;26.50;;;;;;;10.35;49.65;100093.97;4984474;28;20022;-94
2022/02/15 11:00:40;;;;;;;31.25;26.23;;;;;;;10.23;49.52;100091.81;4995114;28;20072;-92
2022/02/15 11:03:08;;;;;;;32.28;25.45;;;;;;;9.98;49.25;100028.41;4991043;28;20029;-92
2022/02/15 11:05:33;;;;;;;34.83;27.67;;;;;;;10.43;49.61;100072.06;4977173;28;20128;-92
2022/02/15 11:08:01;;;;;;;31.77;25.75;;;;;;;10.38;49.47;100092.81;4971485;28;20067;-93
2022/02/15 11:10:39;;;;;;;34.25;28.58;;;;;;;10.41;49.17;100079.31;4971544;28;20495;-94
2022/02/15 11:13:05;;;;;;;35.88;28.88;;;;;;;10.47;49.49;100068.94;4986752;28;20026;-94
2022/02/15 11:15:38;;;;;;;30.45;25.20;;;;;;;10.39;49.64;100036.38;4981359;28;20037;-92
2022/02/15 11:18:10;;;;;;;29.50;23.38;;;;;;;10.82;49.01;100088.88;4955199;28;20027;-91
2022/02/15 11:20:50;;;;;;;24.42;18.65;;;;;;;11.16;49.35;100137.28;4955906;28;20027;-94
2022/02/15 11:23:18;;;;;;;18.73;14.82;;;;;;;11.18;49.26;100130.00;4974298;28;20042;-94
2022/02/15 11:25:44;;;;;;;15.13;12.10;;;;;;;10.73;49.85;100055.56;4956773;28;20061;-93
2022/02/15 11:28:16;;;;;;;19.35;15.23;;;;;;;11.31;49.62;100122.38;4956932;28;20031;-94
2022/02/15 11:30:45;;;;;;;13.65;11.85;;;;;;;11.17;49.97;100101.91;4968530;28;20037;-94
2022/02/15 11:33:16;;;;;;;13.25;11.45;;;;;;;11.04;50.14;100071.53;4976030;28;20034;-94
2022/02/15 11:35:50;;;;;;;15.15;13.00;;;;;;;10.97;50.60;100081.13;4970447;28;20054;-93
2022/02/15 11:38:15;;;;;;;16.08;12.45;;;;;;;11.26;50.45;100107.03;4971842;28;20081;-94
2022/02/15 11:40:41;;;;;;;13.50;12.10;;;;;;;10.08;50.39;99936.75;4959075;28;20519;-95
2022/02/15 11:43:06;;;;;;;12.82;11.45;;;;;;;11.08;50.72;100098.44;4961835;28;20510;-92
2022/02/15 11:45:32;;;;;;;13.68;10.80;;;;;;;10.95;50.61;100058.50;4956215;28;20030;-94
2022/02/15 11:48:07;;;;;;;14.25;10.30;;;;;;;11.23;50.86;100102.06;4971491;28;20074;-93
2022/02/15 11:50:42;;;;;;;14.35;11.95;;;;;;;11.20;50.57;100097.13;4955677;28;20037;-94
2022/02/15 11:53:08;;;;;;;12.95;11.65;;;;;;;10.63;50.90;99998.63;4956790;28;20058;-93
2022/02/15 11:55:35;;;;;;;11.20;9.18;;;;;;;11.19;50.26;100094.66;4976079;28;20027;-93
2022/02/15 11:58:01;;;;;;;11.63;9.32;;;;;;;11.12;50.99;100089.19;4978108;28;20026;-94
2022/02/15 12:00:34;;;;;;;11.80;9.77;;;;;;;10.50;51.20;99984.13;4993968;28;20026;-93
2022/02/15 12:02:59;;;;;;;12.85;9.95;;;;;;;11.06;51.18;100095.13;4959150;28;20061;-94
2022/02/15 12:05:28;;;;;;;12.30;10.00;;;;;;;11.07;51.03;100080.94;4958767;28;20098;-92
2022/02/15 12:07:54;;;;;;;12.73;11.45;;;;;;;11.00;50.69;100094.00;4958758;28;20031;-92
2022/02/15 12:10:21;;;;;;;10.77;9.65;;;;;;;11.06;51.09;100063.44;4945341;28;20094;-92
2022/02/15 12:12:47;;;;;;;11.45;10.25;;;;;;;11.04;51.02;100068.06;4955009;29;20027;-93
2022/02/15 12:15:14;;;;;;;12.98;9.50;;;;;;;11.01;50.74;100057.81;4972572;28;20090;-92
2022/02/15 12:17:43;;;;;;;10.43;9.20;;;;;;;10.47;50.82;99971.25;4959686;28;20038;-92
2022/02/15 12:20:13;;;;;;;11.50;8.70;;;;;;;10.24;51.11;99953.59;4964688;28;20510;-93
2022/02/15 12:22:41;;;;;;;14.25;8.63;;;;;;;11.00;50.91;100057.00;4960072;28;20034;-93
2022/02/15 12:25:08;;;;;;;14.40;9.52;;;;;;;10.10;51.26;99918.94;4970776;28;20383;-94
2022/02/15 12:27:34;;;;;;;11.40;9.85;;;;;;;10.43;51.13;99979.66;4966370;28;20484;-93
2022/02/15 12:30:00;;;;;;;12.68;10.77;;;;;;;10.83;51.19;100034.25;4954998;28;20034;-93
2022/02/15 12:32:29;;;;;;;11.02;9.65;;;;;;;11.03;51.30;100066.41;4947886;28;20033;-94
2022/02/15 12:34:55;;;;;;;13.00;10.10;;;;;;;11.05;51.45;100059.13;4958553;28;20031;-93
2022/02/15 12:37:23;;;;;;;12.27;9.82;;;;;;;10.85;51.29;100028.78;4958260;28;20167;-93
2022/02/15 12:39:54;;;;;;;9.48;8.18;;;;;;;10.44;51.18;99995.34;4992702;28;20027;-92
2022/02/15 12:42:21;;;;;;;28.92;10.98;;;;;;;10.65;50.95;100015.13;4969234;28;20038;-92
2022/02/15 12:45:07;;;;;;;19.63;10.25;;;;;;;11.12;51.14;100054.81;4966270;28;20018;-92
2022/02/15 12:47:35;;;;;;;263.02;43.72;;;;;;;10.58;51.30;99969.25;4969305;28;20030;-92
2022/02/15 12:50:03;;;;;;;47.78;15.77;;;;;;;11.16;51.54;100047.41;4987156;28;20022;-93
2022/02/15 12:52:29;;;;;;;11.88;9.63;;;;;;;10.79;51.02;100003.88;4974392;28;20034;-93
2022/02/15 12:54:58;;;;;;;11.32;8.50;;;;;;;11.16;50.88;100053.53;4963363;28;20041;-93
2022/02/15 12:57:25;;;;;;;9.70;7.75;;;;;;;10.79;51.34;99998.59;4988089;28;20511;-92
2022/02/15 12:59:52;;;;;;;13.13;9.18;;;;;;;11.18;51.09;100059.47;4969711;28;20059;-93
2022/02/15 13:02:22;;;;;;;11.38;8.65;;;;;;;11.23;51.44;100059.78;4974097;28;20030;-93
2022/02/15 13:04:49;;;;;;;46.97;15.07;;;;;;;10.92;51.25;99988.31;4988643;28;20123;-92
2022/02/15 13:07:18;;;;;;;16.92;9.50;;;;;;;10.77;50.96;99974.16;4963262;28;20046;-93
2022/02/15 13:09:48;;;;;;;18.05;15.70;;;;;;;11.28;51.30;100044.25;4958770;28;20026;-95
2022/02/15 13:12:22;;;;;;;37.95;27.80;;;;;;;11.31;51.12;100035.97;4970869;28;20201;-94
2022/02/15 13:14:56;;;;;;;19.42;15.98;;;;;;;10.78;51.22;99950.22;4992012;28;20506;-94
2022/02/15 13:17:24;;;;;;;14.23;10.18;;;;;;;11.00;51.29;99975.09;4989612;28;20037;-93
2022/02/15 13:19:51;;;;;;;14.07;9.77;;;;;;;11.41;51.43;100025.19;4974414;28;20148;-94
2022/02/15 13:22:23;;;;;;;11.43;9.23;;;;;;;9.94;50.92;99781.78;4969353;28;20026;-95
2022/02/15 13:24:55;;;;;;;10.63;8.68;;;;;;;11.48;51.20;100020.84;4977368;28;20031;-94
2022/02/15 13:27:39;;;;;;;;;;;;;;;11.42;51.12;100016.25;4965496;28;20064;-92
2022/02/15 13:30:15;;;;;;;12.20;9.30;;;;;;;11.38;50.45;99994.63;4964405;28;20395;-94
2022/02/15 13:32:41;;;;;;;12.60;8.75;;;;;;;10.72;50.94;99902.53;4973396;28;20026;-94
2022/02/15 13:35:07;;;;;;;11.05;8.75;;;;;;;10.88;50.86;99910.41;4977054;28;20022;-93
2022/02/15 13:37:38;;;;;;;14.65;10.55;;;;;;;11.07;51.15;99938.25;4959707;28;20033;-92
2022/02/15 13:40:06;;;;;;;11.20;10.05;;;;;;;10.49;50.68;99824.06;4965629;28;20495;-92
2022/02/15 13:42:32;;;;;;;12.82;10.43;;;;;;;11.14;50.69;99941.84;4971097;28;20034;-93
2022/02/15 13:44:58;;;;;;;12.65;8.82;;;;;;;11.63;50.74;100005.09;4976502;28;20173;-96
2022/02/15 13:47:25;;;;;;;13.50;9.45;;;;;;;11.72;50.87;100010.16;4978292;28;20034;-96
2022/02/15 13:49:51;;;;;;;10.75;9.15;;;;;;;11.54;50.86;99977.03;4980126;28;20030;-95
2022/02/15 13:52:17;;;;;;;10.93;8.65;;;;;;;10.81;50.91;99854.81;4962499;28;20499;-94
2022/02/15 13:54:46;;;;;;;11.60;8.93;;;;;;;11.37;50.67;99952.50;4958388;28;20037;-96
2022/02/15 13:57:17;;;;;;;18.20;10.32;;;;;;;11.60;50.79;99994.84;4957954;28;20030;-95
2022/02/15 13:59:43;;;;;;;13.97;10.13;;;;;;;11.54;50.71;99969.09;4968791;28;20112;-95
2022/02/15 14:02:09;;;;;;;13.00;10.30;;;;;;;10.50;50.49;99806.41;4978668;28;20491;-93
2022/02/15 14:04:35;;;;;;;12.02;9.70;;;;;;;11.58;50.55;99959.81;4961566;28;20034;-93
2022/02/15 14:07:03;;;;;;;11.38;9.38;;;;;;;11.95;50.46;100018.19;4987040;28;20022;-92
2022/02/15 14:09:29;;;;;;;13.43;10.43;;;;;;;11.16;50.13;99936.41;4977553;28;20117;-93
2022/02/15 14:11:55;;;;;;;11.70;9.35;;;;;;;11.66;50.29;99979.13;4975853;28;20517;-93
2022/02/15 14:14:20;;;;;;;8.93;7.93;;;;;;;10.88;50.21;99835.63;4966956;28;20022;-94
2022/02/15 14:16:46;;;;;;;11.27;8.40;;;;;;;12.13;50.11;100032.94;4967711;28;20072;-93
2022/02/15 14:19:12;;;;;;;10.70;9.02;;;;;;;11.87;49.96;100010.25;4967668;28;20396;-93
2022/02/15 14:21:38;;;;;;;9.95;8.88;;;;;;;11.31;49.55;99892.41;4969749;28;20479;-91
2022/02/15 14:24:07;;;;;;;14.98;9.48;;;;;;;12.30;50.00;100011.47;4967232;28;20034;-93
2022/02/15 14:26:34;;;;;;;12.95;8.98;;;;;;;12.34;49.57;100011.94;4962560;28;20027;-92
2022/02/15 14:29:00;;;;;;;10.52;8.40;;;;;;;12.38;49.91;100000.81;4953863;28;20034;-91
2022/02/15 14:31:26;;;;;;;10.13;8.23;;;;;;;11.96;49.54;99932.50;4975731;28;20121;-91
2022/02/15 14:33:52;;;;;;;8.57;7.68;;;;;;;12.19;49.02;99958.13;4974733;28;20613;-91
2022/02/15 14:36:17;;;;;;;10.90;8.73;;;;;;;12.56;48.55;99989.06;4967873;28;20491;-91
2022/02/15 14:38:43;;;;;;;10.70;8.63;;;;;;;12.49;48.44;99953.72;4953575;28;20041;-91
2022/02/15 14:41:08;;;;;;;12.20;8.60;;;;;;;13.08;47.68;100017.41;4972633;28;20033;-91
2022/02/15 14:43:35;;;;;;;10.60;8.60;;;;;;;13.27;47.33;100014.22;4999799;28;20525;-92
2022/02/15 14:46:02;;;;;;;13.70;10.55;;;;;;;13.42;47.44;100011.59;4978184;28;20054;-91
2022/02/15 14:48:28;;;;;;;15.00;11.32;;;;;;;13.52;46.98;100012.94;4978871;28;20018;-90
2022/02/15 14:50:58;;;;;;;14.45;10.52;;;;;;;12.72;46.79;99872.38;4977919;28;20126;-91
2022/02/15 14:53:24;;;;;;;16.00;11.70;;;;;;;13.70;46.55;100017.84;4974753;28;20121;-90
2022/02/15 14:55:51;;;;;;;16.80;12.20;;;;;;;11.83;46.75;99722.41;4968472;28;20033;-91
2022/02/15 14:58:16;;;;;;;10.65;9.55;;;;;;;13.42;46.47;99959.38;4962291;28;20570;-91
2022/02/15 15:00:42;;;;;;;11.15;9.90;;;;;;;13.34;46.29;99930.25;4973316;28;20117;-91
2022/02/15 15:03:07;;;;;;;12.80;10.07;;;;;;;13.91;45.92;99996.66;4969461;28;20084;-90
2022/02/15 15:05:33;;;;;;;12.55;9.52;;;;;;;14.17;45.91;100022.66;4968481;28;20049;-90
2022/02/15 15:07:59;;;;;;;17.83;11.10;;;;;;;13.66;46.08;99982.91;4971492;28;20030;-91
2022/02/15 15:10:25;;;;;;;13.38;10.07;;;;;;;12.96;46.55;99926.91;4973876;28;20056;-91
2022/02/15 15:12:50;;;;;;;12.30;10.35;;;;;;;13.00;47.86;99982.03;4960337;28;20400;-91
2022/02/15 15:15:16;;;;;;;14.05;9.98;;;;;;;12.89;48.63;100010.81;4958412;28;20025;-92
2022/02/15 15:17:42;;;;;;;15.23;10.52;;;;;;;11.94;49.04;99915.16;4958028;28;20433;-92
2022/02/15 15:20:10;;;;;;;12.88;9.95;;;;;;;11.45;49.66;99881.88;4964447;28;20041;-92
2022/02/15 15:22:36;;;;;;;13.00;10.48;;;;;;;12.24;50.21;100008.72;4971222;28;20033;-92
2022/02/15 15:25:05;;;;;;;15.07;10.10;;;;;;;11.48;50.19;99909.81;4964510;28;20459;-90
2022/02/15 15:27:30;;;;;;;16.45;11.45;;;;;;;11.78;50.82;100003.38;4988641;28;20101;-91
2022/02/15 15:29:56;;;;;;;13.05;9.90;;;;;;;11.48;51.59;99957.41;4980563;28;20038;-91
2022/02/15 15:32:24;;;;;;;14.48;11.10;;;;;;;11.59;51.47;100004.59;4987840;28;20026;-92
2022/02/15 15:34:50;;;;;;;19.25;12.60;;;;;;;9.92;51.86;99796.94;4967032;28;20035;-92
2022/02/15 15:37:15;;;;;;;22.67;16.27;;;;;;;11.03;52.17;99980.03;4968345;28;20041;-92
2022/02/15 15:39:41;;;;;;;22.80;17.85;;;;;;;11.34;52.61;100019.75;4973113;28;20399;-92
2022/02/15 15:42:06;;;;;;;24.85;17.90;;;;;;;10.94;53.02;99973.13;4975478;28;20506;-92
2022/02/15 15:44:35;;;;;;;27.02;18.75;;;;;;;10.04;52.97;99832.53;4968142;28;20030;-92
2022/02/15 15:47:01;;;;;;;27.10;20.92;;;;;;;10.99;53.20;100010.44;4996509;28;20026;-93
2022/02/15 15:49:27;;;;;;;30.23;22.55;;;;;;;10.53;53.49;99955.72;4968533;28;20427;-91
2022/02/15 15:51:52;;;;;;;30.10;23.60;;;;;;;10.13;53.49;99902.78;4975101;28;20066;-91
2022/02/15 15:54:20;;;;;;;33.13;24.45;;;;;;;10.38;53.54;99931.78;4971361;28;20109;-91
2022/02/15 15:56:46;;;;;;;45.08;32.47;;;;;;;10.26;53.79;99931.31;4974789;28;20022;-91
2022/02/15 15:59:12;;;;;;;51.78;37.28;;;;;;;10.30;54.08;99924.72;4970625;28;20030;-91
2022/02/15 16:01:38;;;;;;;48.55;35.15;;;;;;;11.14;54.06;100048.38;4972250;28;20033;-91
2022/02/15 16:04:04;;;;;;;54.72;39.13;;;;;;;9.98;54.34;99882.50;4975890;28;20419;-91
2022/02/15 16:06:30;;;;;;;73.22;44.67;;;;;;;10.66;54.15;99987.72;4993651;28;20026;-91
2022/02/15 16:08:56;;;;;;;88.65;49.60;;;;;;;10.76;54.49;99989.19;4974880;28;20022;-91
2022/02/15 16:11:21;;;;;;;78.45;45.95;;;;;;;10.53;53.96;99961.00;4978257;28;20037;-91
2022/02/15 16:13:47;;;;;;;77.97;46.90;;;;;;;9.91;53.93;99886.78;4977326;28;20096;-91
2022/02/15 16:16:12;;;;;;;56.33;35.35;;;;;;;10.53;54.26;99950.44;4977559;28;20407;-91
2022/02/15 16:18:41;;;;;;;47.90;32.70;;;;;;;10.18;53.92;99915.47;4967671;28;20017;-91
2022/02/15 16:21:10;;;;;;;38.10;27.63;;;;;;;10.38;54.29;99952.91;4977647;28;20034;-91
2022/02/15 16:23:36;;;;;;;33.75;26.13;;;;;;;10.60;53.86;99993.69;4977613;28;20109;-91
2022/02/15 16:26:02;;;;;;;37.92;27.33;;;;;;;10.02;54.17;99936.56;4960389;28;20137;-91
2022/02/15 16:28:28;;;;;;;35.90;27.95;;;;;;;10.98;53.63;100060.81;4959836;28;20027;-91
2022/02/15 16:31:02;;;;;;;38.63;28.30;;;;;;;10.92;54.17;100056.19;4973354;28;20114;-91
2022/02/15 16:33:28;;;;;;;37.03;27.02;;;;;;;10.32;54.14;99996.63;4958048;28;20031;-91
2022/02/15 16:35:54;;;;;;;35.08;26.80;;;;;;;10.82;54.26;100070.41;4974188;28;20089;-91
2022/02/15 16:38:19;;;;;;;41.17;29.45;;;;;;;9.78;54.33;99916.28;4972975;28;20034;-91
2022/02/15 16:40:45;;;;;;;40.40;29.95;;;;;;;10.36;54.60;100021.72;4957629;28;20034;-91
2022/02/15 16:43:11;;;;;;;39.67;30.00;;;;;;;10.61;54.49;100070.09;4973784;28;20129;-91
2022/02/15 16:45:36;;;;;;;47.25;31.17;;;;;;;10.30;54.68;100040.00;4973686;28;20027;-91
2022/02/15 16:48:02;;;;;;;41.30;29.75;;;;;;;10.27;55.02;100035.88;4957804;28;20031;-91
2022/02/15 16:50:28;;;;;;;42.28;30.23;;;;;;;10.33;54.93;100048.44;4973723;28;20049;-91
2022/02/15 16:52:53;;;;;;;39.83;29.23;;;;;;;10.52;54.72;100102.75;4973679;28;20050;-91
2022/02/15 16:55:19;;;;;;;38.28;27.27;;;;;;;9.89;54.92;100008.28;4957577;28;20023;-91
2022/02/15 16:57:44;;;;;;;35.95;27.35;;;;;;;9.86;54.92;100011.25;4957550;28;20035;-91
2022/02/15 17:00:12;;;;;;;34.92;27.13;;;;;;;9.58;54.86;99944.75;4973107;28;20066;-91
2022/02/15 17:02:37;;;;;;;38.50;25.52;;;;;;;9.41;55.40;99930.69;4974440;28;20049;-91
2022/02/15 17:05:03;;;;;;;31.75;25.08;;;;;;;10.06;54.98;100052.16;4973397;28;20381;-91
2022/02/15 17:07:29;;;;;;;31.73;24.20;;;;;;;10.16;55.50;100073.94;4973619;28;20443;-91
2022/02/15 17:09:55;;;;;;;33.30;20.25;;;;;;;9.68;55.64;100016.63;4974048;28;20035;-91
2022/02/15 17:12:21;;;;;;;25.13;20.48;;;;;;;9.00;55.45;99928.91;4973741;28;20038;-91
2022/02/15 17:14:46;;;;;;;21.20;16.85;;;;;;;9.51;55.64;100007.81;4957451;28;20030;-91
2022/02/15 17:17:13;;;;;;;23.67;16.73;;;;;;;9.78;55.88;100030.50;4957635;28;20026;-91
2022/02/15 17:19:39;;;;;;;23.60;18.17;;;;;;;9.84;55.65;100064.16;4973566;28;20049;-92
2022/02/15 17:22:05;;;;;;;26.70;19.73;;;;;;;9.73;55.50;100056.53;4973094;28;20034;-91
2022/02/15 17:24:31;;;;;;;27.90;21.63;;;;;;;9.50;55.74;100015.88;4973129;28;20033;-91
2022/02/15 17:26:56;;;;;;;30.05;22.45;;;;;;;9.29;56.14;99995.22;4973271;28;20361;-92
2022/02/15 17:29:22;;;;;;;35.38;25.85;;;;;;;9.98;56.11;100094.34;4972988;28;20027;-91
2022/02/15 17:31:48;;;;;;;41.95;28.38;;;;;;;9.28;56.32;99996.22;4972928;28;20023;-91
2022/02/15 17:34:14;;;;;;;37.58;27.38;;;;;;;9.21;56.22;100003.09;4973094;28;20046;-91
2022/02/15 17:36:39;;;;;;;31.52;24.42;;;;;;;9.76;56.06;100087.84;4973293;28;20030;-91
2022/02/15 17:39:05;;;;;;;29.70;23.83;;;;;;;9.11;56.20;99960.25;4956811;28;20030;-91
2022/02/15 17:41:31;;;;;;;28.75;23.05;;;;;;;9.76;56.01;100068.56;4973002;28;20066;-91
2022/02/15 17:43:57;;;;;;;29.02;22.70;;;;;;;9.63;56.12;100071.63;4973460;28;20483;-91
2022/02/15 17:46:22;;;;;;;24.88;19.38;;;;;;;9.64;56.35;100064.53;4956906;28;20030;-91
2022/02/15 17:48:48;;;;;;;20.88;18.02;;;;;;;8.62;56.44;99907.31;4956366;28;20174;-91
2022/02/15 17:51:13;;;;;;;22.80;17.02;;;;;;;9.56;56.59;100071.44;4971540;28;20417;-91
2022/02/15 17:53:39;;;;;;;22.83;17.65;;;;;;;9.32;57.18;100030.97;4956540;28;20033;-91
2022/02/15 17:56:05;;;;;;;27.20;21.17;;;;;;;9.59;56.83;100062.38;4972383;28;20049;-92
2022/02/15 17:58:31;;;;;;;34.63;25.95;;;;;;;9.79;56.98;100094.63;4972343;28;20110;-91
2022/02/15 18:00:57;;;;;;;34.47;25.00;;;;;;;8.96;57.16;99991.63;4972699;28;20034;-91
2022/02/15 18:03:25;;;;;;;35.72;26.95;;;;;;;9.37;57.00;100090.13;4972532;28;20597;-91
2022/02/15 18:05:51;;;;;;;47.72;32.95;;;;;;;8.58;57.44;99962.09;4972666;28;20035;-91
2022/02/15 18:08:17;;;;;;;39.97;28.10;;;;;;;8.62;57.51;99970.50;4972487;28;20031;-91
2022/02/15 18:10:42;;;;;;;34.63;26.73;;;;;;;9.12;57.74;100018.03;4972638;28;20023;-92
2022/02/15 18:13:11;;;;;;;35.55;27.15;;;;;;;9.01;57.72;100017.47;4956337;28;20030;-92
2022/02/15 18:15:38;;;;;;;47.47;35.70;;;;;;;9.51;57.38;100097.44;4972534;28;20125;-92
2022/02/15 18:18:03;;;;;;;38.22;30.38;;;;;;;9.23;57.44;100083.63;4972079;28;20129;-92
2022/02/15 18:20:29;;;;;;;41.70;32.10;;;;;;;9.43;57.97;100105.31;4972181;28;20054;-91
2022/02/15 18:22:54;;;;;;;53.00;37.03;;;;;;;8.87;57.92;100010.97;4972429;28;20607;-91
2022/02/15 18:25:20;;;;;;;49.92;36.65;;;;;;;9.47;58.01;100113.72;4956398;28;20354;-91
2022/02/15 18:27:46;;;;;;;47.60;32.45;;;;;;;8.79;57.83;100022.25;4972322;28;20409;-91
2022/02/15 18:30:12;;;;;;;29.75;23.90;;;;;;;9.22;57.77;100066.16;4971981;28;20118;-91
2022/02/15 18:32:37;;;;;;;36.58;28.25;;;;;;;8.60;58.35;99991.72;4971882;28;20027;-91
2022/02/15 18:35:03;;;;;;;35.72;27.63;;;;;;;8.74;58.24;100014.00;4956229;28;20487;-91
2022/02/15 18:37:30;;;;;;;39.78;27.77;;;;;;;7.45;58.20;99827.06;4955750;28;20125;-91
2022/02/15 18:39:58;;;;;;;39.80;28.35;;;;;;;9.37;58.56;100118.28;4972148;28;20538;-91
2022/02/15 18:42:26;;;;;;;39.40;30.67;;;;;;;9.32;58.43;100118.75;4972261;28;20475;-92
2022/02/15 18:44:55;;;;;;;53.55;39.58;;;;;;;8.88;58.44;100081.06;4972071;28;20026;-92
2022/02/15 18:47:20;;;;;;;51.60;36.65;;;;;;;8.30;58.71;99994.75;4956020;28;20488;-91
2022/02/15 18:49:46;;;;;;;53.33;37.88;;;;;;;8.80;58.83;100084.47;4955967;28;20031;-91
2022/02/15 18:52:11;;;;;;;56.45;41.50;;;;;;;8.02;59.37;99985.25;4972115;28;20030;-91
2022/02/15 18:54:38;;;;;;;65.07;45.47;;;;;;;8.88;58.93;100117.94;4956044;28;20042;-92
2022/02/15 18:57:04;;;;;;;58.15;41.58;;;;;;;7.92;59.06;99982.72;4971994;28;20042;-91